sensor_id;sensor_type;location;lat;lon;timestamp;pressure;altitude;pressure_sealevel;temperature;humidity
73073;BME280;61260;51.090;-1.786;2022-09-23T00:01:34;100931.81;;;15.56;83.10
73073;BME280;61260;51.090;-1.786;2022-09-23T00:04:03;100933.20;;;15.55;83.49
73073;BME280;61260;51.090;-1.786;2022-09-23T00:06:33;100929.60;;;15.55;83.32
73073;BME280;61260;51.090;-1.786;2022-09-23T00:09:04;100928.69;;;15.57;83.31
73073;BME280;61260;51.090;-1.786;2022-09-23T00:11:34;100928.91;;;15.57;83.21
73073;BME280;61260;51.090;-1.786;2022-09-23T00:14:04;100925.31;;;15.53;83.46
73073;BME280;61260;51.090;-1.786;2022-09-23T00:16:34;100927.21;;;15.54;83.46
73073;BME280;61260;51.090;-1.786;2022-09-23T00:19:06;100921.52;;;15.57;83.33
73073;BME280;61260;51.090;-1.786;2022-09-23T00:21:36;100919.16;;;15.57;83.55
73073;BME280;61260;51.090;-1.786;2022-09-23T00:24:06;100917.32;;;15.55;83.46
73073;BME280;61260;51.090;-1.786;2022-09-23T00:26:35;100917.77;;;15.53;83.47
73073;BME280;61260;51.090;-1.786;2022-09-23T00:29:05;100919.80;;;15.52;83.42
73073;BME280;61260;51.090;-1.786;2022-09-23T00:31:35;100916.94;;;15.51;83.48
73073;BME280;61260;51.090;-1.786;2022-09-23T00:34:04;100913.48;;;15.47;83.51
73073;BME280;61260;51.090;-1.786;2022-09-23T00:36:34;100912.27;;;15.44;83.68
73073;BME280;61260;51.090;-1.786;2022-09-23T00:39:04;100914.96;;;15.41;83.72
73073;BME280;61260;51.090;-1.786;2022-09-23T00:41:34;100913.60;;;15.40;84.01
73073;BME280;61260;51.090;-1.786;2022-09-23T00:47:04;100909.72;;;15.38;84.24
73073;BME280;61260;51.090;-1.786;2022-09-23T00:49:34;100908.06;;;15.38;84.51
73073;BME280;61260;51.090;-1.786;2022-09-23T00:52:09;100904.58;;;15.36;84.45
73073;BME280;61260;51.090;-1.786;2022-09-23T00:54:42;100905.19;;;15.35;84.52
73073;BME280;61260;51.090;-1.786;2022-09-23T00:57:15;100906.88;;;15.32;84.41
73073;BME280;61260;51.090;-1.786;2022-09-23T00:59:48;100901.64;;;15.30;84.42
73073;BME280;61260;51.090;-1.786;2022-09-23T01:02:19;100900.60;;;15.30;84.79
73073;BME280;61260;51.090;-1.786;2022-09-23T01:04:50;100896.98;;;15.26;85.31
73073;BME280;61260;51.090;-1.786;2022-09-23T01:07:19;100898.04;;;15.23;85.12
73073;BME280;61260;51.090;-1.786;2022-09-23T01:09:50;100898.33;;;15.22;85.33
73073;BME280;61260;51.090;-1.786;2022-09-23T01:12:31;100897.03;;;15.20;85.37
73073;BME280;61260;51.090;-1.786;2022-09-23T01:15:11;100895.90;;;15.18;85.59
73073;BME280;61260;51.090;-1.786;2022-09-23T01:17:50;100895.05;;;15.15;85.78
73073;BME280;61260;51.090;-1.786;2022-09-23T01:20:45;100890.89;;;15.11;86.09
73073;BME280;61260;51.090;-1.786;2022-09-23T01:26:36;100890.77;;;15.03;86.21
73073;BME280;61260;51.090;-1.786;2022-09-23T01:29:26;100890.97;;;15.01;86.65
73073;BME280;61260;51.090;-1.786;2022-09-23T01:32:10;100890.64;;;15.00;86.84
73073;BME280;61260;51.090;-1.786;2022-09-23T01:34:48;100894.73;;;15.01;86.89
73073;BME280;61260;51.090;-1.786;2022-09-23T01:37:25;100890.96;;;15.01;87.24
73073;BME280;61260;51.090;-1.786;2022-09-23T01:40:02;100890.92;;;15.03;87.53
73073;BME280;61260;51.090;-1.786;2022-09-23T01:42:37;100890.01;;;15.05;87.37
73073;BME280;61260;51.090;-1.786;2022-09-23T01:45:13;100888.38;;;15.06;87.39
73073;BME280;61260;51.090;-1.786;2022-09-23T01:47:49;100887.44;;;15.07;87.43
73073;BME280;61260;51.090;-1.786;2022-09-23T01:50:23;100885.77;;;15.10;87.59
73073;BME280;61260;51.090;-1.786;2022-09-23T01:53:15;100879.59;;;15.12;87.49
73073;BME280;61260;51.090;-1.786;2022-09-23T01:55:49;100881.89;;;15.13;87.40
73073;BME280;61260;51.090;-1.786;2022-09-23T01:58:25;100883.77;;;15.12;87.34
73073;BME280;61260;51.090;-1.786;2022-09-23T02:01:02;100880.05;;;15.11;87.65
73073;BME280;61260;51.090;-1.786;2022-09-23T02:03:36;100877.98;;;15.10;87.72
73073;BME280;61260;51.090;-1.786;2022-09-23T02:06:12;100874.21;;;15.10;87.61
73073;BME280;61260;51.090;-1.786;2022-09-23T02:08:46;100870.38;;;15.11;87.81
73073;BME280;61260;51.090;-1.786;2022-09-23T02:11:18;100872.92;;;15.13;87.96
73073;BME280;61260;51.090;-1.786;2022-09-23T02:13:51;100868.38;;;15.14;87.98
73073;BME280;61260;51.090;-1.786;2022-09-23T02:16:26;100868.90;;;15.16;87.83
73073;BME280;61260;51.090;-1.786;2022-09-23T02:19:03;100866.57;;;15.17;88.03
73073;BME280;61260;51.090;-1.786;2022-09-23T02:21:37;100865.02;;;15.19;87.99
73073;BME280;61260;51.090;-1.786;2022-09-23T02:24:11;100859.48;;;15.21;88.14
73073;BME280;61260;51.090;-1.786;2022-09-23T02:26:47;100856.44;;;15.23;87.87
73073;BME280;61260;51.090;-1.786;2022-09-23T02:29:27;100855.78;;;15.26;87.88
73073;BME280;61260;51.090;-1.786;2022-09-23T02:32:03;100855.46;;;15.29;87.74
73073;BME280;61260;51.090;-1.786;2022-09-23T02:34:43;100853.52;;;15.30;87.76
73073;BME280;61260;51.090;-1.786;2022-09-23T02:37:24;100851.70;;;15.32;88.13
73073;BME280;61260;51.090;-1.786;2022-09-23T02:40:01;100851.55;;;15.34;88.01
73073;BME280;61260;51.090;-1.786;2022-09-23T02:42:41;100846.84;;;15.34;87.76
73073;BME280;61260;51.090;-1.786;2022-09-23T02:45:14;100842.90;;;15.34;87.84
73073;BME280;61260;51.090;-1.786;2022-09-23T02:47:49;100842.90;;;15.34;87.76
73073;BME280;61260;51.090;-1.786;2022-09-23T02:50:21;100845.11;;;15.35;87.87
73073;BME280;61260;51.090;-1.786;2022-09-23T02:52:51;100839.77;;;15.35;87.82
73073;BME280;61260;51.090;-1.786;2022-09-23T02:55:21;100840.09;;;15.35;87.96
73073;BME280;61260;51.090;-1.786;2022-09-23T02:57:53;100836.95;;;15.36;87.88
73073;BME280;61260;51.090;-1.786;2022-09-23T03:00:23;100842.38;;;15.36;87.81
73073;BME280;61260;51.090;-1.786;2022-09-23T03:03:06;100838.86;;;15.37;87.87
73073;BME280;61260;51.090;-1.786;2022-09-23T03:05:48;100838.48;;;15.39;87.75
73073;BME280;61260;51.090;-1.786;2022-09-23T03:08:39;100837.73;;;15.40;87.80
73073;BME280;61260;51.090;-1.786;2022-09-23T03:11:12;100840.42;;;15.42;87.72
73073;BME280;61260;51.090;-1.786;2022-09-23T03:13:52;100834.48;;;15.45;87.79
73073;BME280;61260;51.090;-1.786;2022-09-23T03:16:33;100840.40;;;15.46;87.61
73073;BME280;61260;51.090;-1.786;2022-09-23T03:19:18;100837.92;;;15.48;87.85
73073;BME280;61260;51.090;-1.786;2022-09-23T03:21:55;100839.40;;;15.48;87.67
73073;BME280;61260;51.090;-1.786;2022-09-23T03:24:28;100833.96;;;15.47;87.94
73073;BME280;61260;51.090;-1.786;2022-09-23T03:27:04;100836.61;;;15.46;87.72
73073;BME280;61260;51.090;-1.786;2022-09-23T03:29:36;100837.39;;;15.44;87.66
73073;BME280;61260;51.090;-1.786;2022-09-23T03:32:06;100838.55;;;15.43;87.66
73073;BME280;61260;51.090;-1.786;2022-09-23T03:34:36;100837.74;;;15.42;87.58
73073;BME280;61260;51.090;-1.786;2022-09-23T03:37:12;100833.05;;;15.43;87.52
73073;BME280;61260;51.090;-1.786;2022-09-23T03:39:49;100830.85;;;15.43;87.51
73073;BME280;61260;51.090;-1.786;2022-09-23T03:42:23;100829.29;;;15.43;87.56
73073;BME280;61260;51.090;-1.786;2022-09-23T03:44:54;100828.27;;;15.44;87.45
73073;BME280;61260;51.090;-1.786;2022-09-23T03:47:26;100828.72;;;15.43;87.52
73073;BME280;61260;51.090;-1.786;2022-09-23T03:49:58;100824.50;;;15.44;87.52
73073;BME280;61260;51.090;-1.786;2022-09-23T03:52:28;100818.42;;;15.43;87.45
73073;BME280;61260;51.090;-1.786;2022-09-23T03:54:57;100818.88;;;15.42;87.39
73073;BME280;61260;51.090;-1.786;2022-09-23T03:57:29;100820.66;;;15.40;87.54
73073;BME280;61260;51.090;-1.786;2022-09-23T03:59:59;100821.02;;;15.38;87.52
73073;BME280;61260;51.090;-1.786;2022-09-23T04:02:29;100819.11;;;15.37;87.57
73073;BME280;61260;51.090;-1.786;2022-09-23T04:04:59;100812.80;;;15.35;87.74
73073;BME280;61260;51.090;-1.786;2022-09-23T04:07:29;100813.51;;;15.34;87.74
73073;BME280;61260;51.090;-1.786;2022-09-23T04:09:59;100807.14;;;15.35;87.63
73073;BME280;61260;51.090;-1.786;2022-09-23T04:12:29;100807.13;;;15.34;87.71
73073;BME280;61260;51.090;-1.786;2022-09-23T04:14:58;100810.96;;;15.33;87.75
73073;BME280;61260;51.090;-1.786;2022-09-23T04:17:28;100816.91;;;15.32;87.83
73073;BME280;61260;51.090;-1.786;2022-09-23T04:19:58;100820.62;;;15.32;87.89
73073;BME280;61260;51.090;-1.786;2022-09-23T04:22:28;100821.59;;;15.34;87.82
73073;BME280;61260;51.090;-1.786;2022-09-23T04:24:58;100824.08;;;15.37;87.97
73073;BME280;61260;51.090;-1.786;2022-09-23T04:27:28;100825.71;;;15.41;87.78
73073;BME280;61260;51.090;-1.786;2022-09-23T04:29:57;100821.73;;;15.43;87.71
73073;BME280;61260;51.090;-1.786;2022-09-23T04:32:27;100818.94;;;15.47;87.69
73073;BME280;61260;51.090;-1.786;2022-09-23T04:34:58;100816.34;;;15.46;87.42
73073;BME280;61260;51.090;-1.786;2022-09-23T04:37:28;100815.47;;;15.46;87.48
73073;BME280;61260;51.090;-1.786;2022-09-23T04:39:58;100811.38;;;15.46;87.58
73073;BME280;61260;51.090;-1.786;2022-09-23T04:42:29;100823.08;;;15.44;87.30
73073;BME280;61260;51.090;-1.786;2022-09-23T04:44:59;100817.70;;;15.42;87.40
73073;BME280;61260;51.090;-1.786;2022-09-23T04:47:31;100818.91;;;15.39;87.27
73073;BME280;61260;51.090;-1.786;2022-09-23T04:50:01;100819.66;;;15.36;87.45
73073;BME280;61260;51.090;-1.786;2022-09-23T04:52:32;100824.58;;;15.33;87.59
73073;BME280;61260;51.090;-1.786;2022-09-23T04:55:02;100822.58;;;15.32;87.60
73073;BME280;61260;51.090;-1.786;2022-09-23T04:57:32;100819.33;;;15.31;87.87
73073;BME280;61260;51.090;-1.786;2022-09-23T05:00:02;100822.89;;;15.32;87.78
73073;BME280;61260;51.090;-1.786;2022-09-23T05:02:32;100819.30;;;15.33;88.01
73073;BME280;61260;51.090;-1.786;2022-09-23T05:05:06;100822.80;;;15.36;87.64
73073;BME280;61260;51.090;-1.786;2022-09-23T05:07:35;100818.40;;;15.36;87.54
73073;BME280;61260;51.090;-1.786;2022-09-23T05:10:07;100823.05;;;15.37;87.53
73073;BME280;61260;51.090;-1.786;2022-09-23T05:12:36;100820.84;;;15.36;87.63
73073;BME280;61260;51.090;-1.786;2022-09-23T05:15:07;100817.54;;;15.36;87.60
73073;BME280;61260;51.090;-1.786;2022-09-23T05:17:37;100817.45;;;15.36;87.62
73073;BME280;61260;51.090;-1.786;2022-09-23T05:20:09;100818.64;;;15.37;87.59
73073;BME280;61260;51.090;-1.786;2022-09-23T05:22:40;100822.41;;;15.36;87.61
73073;BME280;61260;51.090;-1.786;2022-09-23T05:25:10;100826.70;;;15.34;87.68
73073;BME280;61260;51.090;-1.786;2022-09-23T05:27:40;100827.95;;;15.33;87.69
73073;BME280;61260;51.090;-1.786;2022-09-23T05:30:11;100828.81;;;15.33;87.69
73073;BME280;61260;51.090;-1.786;2022-09-23T05:32:42;100827.02;;;15.33;87.80
73073;BME280;61260;51.090;-1.786;2022-09-23T05:35:13;100832.02;;;15.37;88.00
73073;BME280;61260;51.090;-1.786;2022-09-23T05:37:43;100831.02;;;15.38;88.06
73073;BME280;61260;51.090;-1.786;2022-09-23T05:40:12;100836.69;;;15.39;88.00
73073;BME280;61260;51.090;-1.786;2022-09-23T05:42:42;100834.18;;;15.40;88.09
73073;BME280;61260;51.090;-1.786;2022-09-23T05:45:13;100832.39;;;15.41;88.16
73073;BME280;61260;51.090;-1.786;2022-09-23T05:47:42;100831.36;;;15.41;88.05
73073;BME280;61260;51.090;-1.786;2022-09-23T05:50:12;100831.36;;;15.41;87.97
73073;BME280;61260;51.090;-1.786;2022-09-23T05:52:42;100833.09;;;15.41;87.96
73073;BME280;61260;51.090;-1.786;2022-09-23T05:55:11;100831.73;;;15.39;87.98
73073;BME280;61260;51.090;-1.786;2022-09-23T05:57:42;100830.97;;;15.40;88.09
73073;BME280;61260;51.090;-1.786;2022-09-23T06:00:12;100834.22;;;15.42;87.96
73073;BME280;61260;51.090;-1.786;2022-09-23T06:02:42;100834.52;;;15.41;88.02
73073;BME280;61260;51.090;-1.786;2022-09-23T06:05:12;100835.77;;;15.41;88.06
73073;BME280;61260;51.090;-1.786;2022-09-23T06:07:42;100836.86;;;15.40;88.01
73073;BME280;61260;51.090;-1.786;2022-09-23T06:10:12;100840.31;;;15.40;88.01
73073;BME280;61260;51.090;-1.786;2022-09-23T06:12:41;100841.11;;;15.40;88.07
73073;BME280;61260;51.090;-1.786;2022-09-23T06:15:33;100843.29;;;15.44;88.00
73073;BME280;61260;51.090;-1.786;2022-09-23T06:18:06;100841.21;;;15.47;87.99
73073;BME280;61260;51.090;-1.786;2022-09-23T06:20:36;100846.48;;;15.47;87.80
73073;BME280;61260;51.090;-1.786;2022-09-23T06:23:08;100844.52;;;15.48;87.79
73073;BME280;61260;51.090;-1.786;2022-09-23T06:25:41;100849.25;;;15.49;87.86
73073;BME280;61260;51.090;-1.786;2022-09-23T06:28:26;100847.49;;;15.47;87.73
73073;BME280;61260;51.090;-1.786;2022-09-23T06:31:10;100847.43;;;15.48;87.92
73073;BME280;61260;51.090;-1.786;2022-09-23T06:33:59;100852.77;;;15.48;87.89
73073;BME280;61260;51.090;-1.786;2022-09-23T06:36:29;100857.34;;;15.48;87.86
73073;BME280;61260;51.090;-1.786;2022-09-23T06:39:00;100859.39;;;15.48;87.82
73073;BME280;61260;51.090;-1.786;2022-09-23T06:41:33;100859.98;;;15.50;87.68
73073;BME280;61260;51.090;-1.786;2022-09-23T06:44:04;100857.59;;;15.48;87.58
73073;BME280;61260;51.090;-1.786;2022-09-23T06:46:35;100862.13;;;15.47;87.56
73073;BME280;61260;51.090;-1.786;2022-09-23T06:49:06;100863.52;;;15.45;87.65
73073;BME280;61260;51.090;-1.786;2022-09-23T06:51:36;100862.88;;;15.44;87.46
73073;BME280;61260;51.090;-1.786;2022-09-23T06:54:10;100870.27;;;15.45;87.58
73073;BME280;61260;51.090;-1.786;2022-09-23T06:56:47;100872.69;;;15.43;87.26
73073;BME280;61260;51.090;-1.786;2022-09-23T06:59:16;100875.91;;;15.43;87.27
73073;BME280;61260;51.090;-1.786;2022-09-23T07:01:47;100877.42;;;15.44;87.12
73073;BME280;61260;51.090;-1.786;2022-09-23T07:04:22;100880.52;;;15.47;87.24
73073;BME280;61260;51.090;-1.786;2022-09-23T07:07:06;100881.56;;;15.51;87.04
73073;BME280;61260;51.090;-1.786;2022-09-23T07:09:39;100882.39;;;15.54;86.97
73073;BME280;61260;51.090;-1.786;2022-09-23T07:12:10;100887.19;;;15.55;86.47
73073;BME280;61260;51.090;-1.786;2022-09-23T07:14:42;100892.02;;;15.57;86.41
73073;BME280;61260;51.090;-1.786;2022-09-23T07:17:13;100889.95;;;15.60;86.12
73073;BME280;61260;51.090;-1.786;2022-09-23T07:19:43;100890.95;;;15.64;85.82
73073;BME280;61260;51.090;-1.786;2022-09-23T07:22:13;100893.30;;;15.64;85.64
73073;BME280;61260;51.090;-1.786;2022-09-23T07:24:43;100895.91;;;15.64;85.56
73073;BME280;61260;51.090;-1.786;2022-09-23T07:27:14;100894.09;;;15.63;85.55
73073;BME280;61260;51.090;-1.786;2022-09-23T07:29:50;100902.19;;;15.63;85.19
73073;BME280;61260;51.090;-1.786;2022-09-23T07:32:21;100900.69;;;15.62;84.66
73073;BME280;61260;51.090;-1.786;2022-09-23T07:34:51;100897.03;;;15.66;84.82
73073;BME280;61260;51.090;-1.786;2022-09-23T07:37:21;100897.52;;;15.77;84.65
73073;BME280;61260;51.090;-1.786;2022-09-23T07:39:51;100898.51;;;15.89;84.32
73073;BME280;61260;51.090;-1.786;2022-09-23T07:42:21;100897.34;;;15.96;83.77
73073;BME280;61260;51.090;-1.786;2022-09-23T07:44:51;100901.33;;;16.05;83.70
73073;BME280;61260;51.090;-1.786;2022-09-23T07:47:22;100905.73;;;16.10;83.17
73073;BME280;61260;51.090;-1.786;2022-09-23T07:49:52;100911.21;;;16.14;83.29
73073;BME280;61260;51.090;-1.786;2022-09-23T07:52:22;100915.30;;;16.24;83.14
73073;BME280;61260;51.090;-1.786;2022-09-23T07:54:52;100917.63;;;16.28;82.33
73073;BME280;61260;51.090;-1.786;2022-09-23T07:57:22;100919.95;;;16.25;81.83
73073;BME280;61260;51.090;-1.786;2022-09-23T07:59:51;100918.05;;;16.18;82.09
73073;BME280;61260;51.090;-1.786;2022-09-23T08:02:21;100916.38;;;16.16;82.26
73073;BME280;61260;51.090;-1.786;2022-09-23T08:04:51;100917.48;;;16.19;81.82
73073;BME280;61260;51.090;-1.786;2022-09-23T08:07:22;100914.67;;;16.25;81.63
73073;BME280;61260;51.090;-1.786;2022-09-23T08:09:52;100915.58;;;16.50;81.30
73073;BME280;61260;51.090;-1.786;2022-09-23T08:12:22;100912.54;;;16.77;80.30
73073;BME280;61260;51.090;-1.786;2022-09-23T08:14:52;100922.52;;;17.05;79.27
73073;BME280;61260;51.090;-1.786;2022-09-23T08:17:22;100921.59;;;17.36;79.12
73073;BME280;61260;51.090;-1.786;2022-09-23T08:19:51;100927.27;;;17.63;75.77
73073;BME280;61260;51.090;-1.786;2022-09-23T08:22:21;100928.02;;;17.78;75.00
73073;BME280;61260;51.090;-1.786;2022-09-23T08:24:51;100925.12;;;17.91;75.15
73073;BME280;61260;51.090;-1.786;2022-09-23T08:27:21;100924.80;;;18.15;74.36
73073;BME280;61260;51.090;-1.786;2022-09-23T08:29:50;100930.55;;;18.34;72.43
73073;BME280;61260;51.090;-1.786;2022-09-23T08:32:20;100930.98;;;18.78;71.51
73073;BME280;61260;51.090;-1.786;2022-09-23T08:34:50;100934.49;;;19.16;68.46
73073;BME280;61260;51.090;-1.786;2022-09-23T08:37:20;100935.70;;;19.20;69.08
73073;BME280;61260;51.090;-1.786;2022-09-23T08:39:50;100936.70;;;19.15;67.37
73073;BME280;61260;51.090;-1.786;2022-09-23T08:42:25;100938.18;;;19.06;67.69
73073;BME280;61260;51.090;-1.786;2022-09-23T08:44:59;100937.86;;;19.04;67.95
73073;BME280;61260;51.090;-1.786;2022-09-23T08:47:34;100942.19;;;18.96;66.99
73073;BME280;61260;51.090;-1.786;2022-09-23T08:50:11;100945.28;;;18.75;67.26
73073;BME280;61260;51.090;-1.786;2022-09-23T08:52:46;100944.81;;;18.56;68.27
73073;BME280;61260;51.090;-1.786;2022-09-23T08:55:18;100946.48;;;18.45;68.34
73073;BME280;61260;51.090;-1.786;2022-09-23T08:58:15;100951.73;;;18.25;68.89
73073;BME280;61260;51.090;-1.786;2022-09-23T09:00:58;100955.50;;;17.98;69.44
73073;BME280;61260;51.090;-1.786;2022-09-23T09:03:35;100956.06;;;17.79;70.62
73073;BME280;61260;51.090;-1.786;2022-09-23T09:06:06;100954.65;;;17.62;70.92
73073;BME280;61260;51.090;-1.786;2022-09-23T09:08:39;100953.11;;;17.47;71.07
73073;BME280;61260;51.090;-1.786;2022-09-23T09:11:13;100954.35;;;17.38;71.45
73073;BME280;61260;51.090;-1.786;2022-09-23T09:13:52;100956.99;;;17.28;71.69
73073;BME280;61260;51.090;-1.786;2022-09-23T09:16:31;100959.45;;;17.13;71.80
73073;BME280;61260;51.090;-1.786;2022-09-23T09:19:16;100957.55;;;17.13;72.36
73073;BME280;61260;51.090;-1.786;2022-09-23T09:21:49;100956.69;;;17.29;72.69
73073;BME280;61260;51.090;-1.786;2022-09-23T09:24:29;100958.31;;;17.56;71.44
73073;BME280;61260;51.090;-1.786;2022-09-23T09:27:01;100954.27;;;17.94;70.49
73073;BME280;61260;51.090;-1.786;2022-09-23T09:29:41;100947.58;;;18.81;69.76
73073;BME280;61260;51.090;-1.786;2022-09-23T09:32:21;100945.85;;;20.17;65.13
73073;BME280;61260;51.090;-1.786;2022-09-23T09:34:58;100949.54;;;20.43;62.79
73073;BME280;61260;51.090;-1.786;2022-09-23T09:37:32;100946.02;;;20.45;63.43
73073;BME280;61260;51.090;-1.786;2022-09-23T09:40:04;100942.33;;;20.63;62.71
73073;BME280;61260;51.090;-1.786;2022-09-23T09:42:38;100940.02;;;20.81;62.89
73073;BME280;61260;51.090;-1.786;2022-09-23T09:45:14;100937.89;;;20.82;60.05
73073;BME280;61260;51.090;-1.786;2022-09-23T09:47:49;100938.27;;;20.86;60.57
73073;BME280;61260;51.090;-1.786;2022-09-23T09:50:44;100929.33;;;21.56;61.29
73073;BME280;61260;51.090;-1.786;2022-09-23T09:53:22;100929.04;;;22.82;58.49
73073;BME280;61260;51.090;-1.786;2022-09-23T09:56:02;100923.35;;;24.34;54.22
73073;BME280;61260;51.090;-1.786;2022-09-23T09:58:38;100921.23;;;25.53;48.37
73073;BME280;61260;51.090;-1.786;2022-09-23T10:01:23;100919.45;;;25.68;47.31
73073;BME280;61260;51.090;-1.786;2022-09-23T10:03:55;100918.58;;;25.35;46.72
73073;BME280;61260;51.090;-1.786;2022-09-23T10:06:27;100919.52;;;25.28;47.39
73073;BME280;61260;51.090;-1.786;2022-09-23T10:09:11;100914.95;;;26.14;44.12
73073;BME280;61260;51.090;-1.786;2022-09-23T10:11:42;100911.55;;;27.14;43.40
73073;BME280;61260;51.090;-1.786;2022-09-23T10:14:30;100905.64;;;27.76;39.40
73073;BME280;61260;51.090;-1.786;2022-09-23T10:17:05;100906.48;;;26.94;41.45
73073;BME280;61260;51.090;-1.786;2022-09-23T10:19:38;100909.70;;;26.10;42.18
73073;BME280;61260;51.090;-1.786;2022-09-23T10:22:19;100908.61;;;25.20;44.37
73073;BME280;61260;51.090;-1.786;2022-09-23T10:24:52;100911.36;;;25.04;45.77
73073;BME280;61260;51.090;-1.786;2022-09-23T10:27:32;100903.27;;;26.28;44.65
73073;BME280;61260;51.090;-1.786;2022-09-23T10:30:10;100899.55;;;27.35;41.68
73073;BME280;61260;51.090;-1.786;2022-09-23T10:32:50;100901.74;;;27.26;39.55
73073;BME280;61260;51.090;-1.786;2022-09-23T10:35:23;100902.11;;;26.53;40.62
73073;BME280;61260;51.090;-1.786;2022-09-23T10:37:54;100901.10;;;26.35;40.78
73073;BME280;61260;51.090;-1.786;2022-09-23T10:40:30;100907.70;;;26.08;41.74
73073;BME280;61260;51.090;-1.786;2022-09-23T10:43:25;100909.20;;;25.39;42.26
73073;BME280;61260;51.090;-1.786;2022-09-23T10:46:18;100906.82;;;24.55;44.56
73073;BME280;61260;51.090;-1.786;2022-09-23T10:52:06;100909.08;;;22.90;48.72
73073;BME280;61260;51.090;-1.786;2022-09-23T10:54:47;100907.82;;;22.46;49.85
73073;BME280;61260;51.090;-1.786;2022-09-23T10:57:29;100908.70;;;22.15;50.95
73073;BME280;61260;51.090;-1.786;2022-09-23T11:00:22;100906.52;;;21.96;51.67
73073;BME280;61260;51.090;-1.786;2022-09-23T11:06:04;100907.81;;;21.14;53.39
73073;BME280;61260;51.090;-1.786;2022-09-23T11:08:51;100907.02;;;20.88;54.33
73073;BME280;61260;51.090;-1.786;2022-09-23T11:11:33;100902.60;;;21.31;54.02
73073;BME280;61260;51.090;-1.786;2022-09-23T11:14:20;100895.95;;;22.26;51.84
73073;BME280;61260;51.090;-1.786;2022-09-23T11:17:14;100895.91;;;22.36;50.19
73073;BME280;61260;51.090;-1.786;2022-09-23T11:20:22;100897.89;;;22.23;51.20
73073;BME280;61260;51.090;-1.786;2022-09-23T11:25:52;100895.95;;;23.39;47.83
73073;BME280;61260;51.090;-1.786;2022-09-23T11:31:34;100893.84;;;23.85;46.33
73073;BME280;61260;51.090;-1.786;2022-09-23T11:34:19;100897.68;;;23.35;47.35
73073;BME280;61260;51.090;-1.786;2022-09-23T11:36:55;100903.48;;;22.81;48.53
73073;BME280;61260;51.090;-1.786;2022-09-23T11:39:28;100898.65;;;22.25;49.94
73073;BME280;61260;51.090;-1.786;2022-09-23T11:42:00;100900.52;;;21.92;51.07
73073;BME280;61260;51.090;-1.786;2022-09-23T11:44:32;100897.84;;;21.63;52.06
73073;BME280;61260;51.090;-1.786;2022-09-23T11:47:07;100897.00;;;21.36;52.78
73073;BME280;61260;51.090;-1.786;2022-09-23T11:49:41;100891.79;;;21.12;53.48
73073;BME280;61260;51.090;-1.786;2022-09-23T11:52:17;100895.50;;;20.89;54.32
73073;BME280;61260;51.090;-1.786;2022-09-23T11:54:52;100894.02;;;20.86;55.10
73073;BME280;61260;51.090;-1.786;2022-09-23T11:57:28;100887.54;;;20.93;55.22
73073;BME280;61260;51.090;-1.786;2022-09-23T12:00:03;100887.17;;;21.03;55.06
73073;BME280;61260;51.090;-1.786;2022-09-23T12:02:51;100885.30;;;21.21;54.49
73073;BME280;61260;51.090;-1.786;2022-09-23T12:05:26;100885.89;;;22.14;52.93
73073;BME280;61260;51.090;-1.786;2022-09-23T12:08:00;100882.02;;;23.22;50.73
73073;BME280;61260;51.090;-1.786;2022-09-23T12:10:42;100879.39;;;23.44;48.57
73073;BME280;61260;51.090;-1.786;2022-09-23T12:13:15;100878.80;;;23.15;48.05
73073;BME280;61260;51.090;-1.786;2022-09-23T12:16:00;100877.23;;;22.81;49.14
73073;BME280;61260;51.090;-1.786;2022-09-23T12:18:44;100877.13;;;22.64;49.75
73073;BME280;61260;51.090;-1.786;2022-09-23T12:21:34;100872.28;;;22.37;50.41
73073;BME280;61260;51.090;-1.786;2022-09-23T12:24:24;100869.11;;;22.07;50.81
73073;BME280;61260;51.090;-1.786;2022-09-23T12:26:58;100861.97;;;21.93;50.83
73073;BME280;61260;51.090;-1.786;2022-09-23T12:29:30;100860.13;;;21.95;50.81
73073;BME280;61260;51.090;-1.786;2022-09-23T12:32:01;100854.09;;;22.09;50.93
73073;BME280;61260;51.090;-1.786;2022-09-23T12:34:40;100851.45;;;22.37;50.60
73073;BME280;61260;51.090;-1.786;2022-09-23T12:37:24;100850.06;;;23.09;48.37
73073;BME280;61260;51.090;-1.786;2022-09-23T12:39:59;100848.45;;;23.32;47.44
73073;BME280;61260;51.090;-1.786;2022-09-23T12:42:30;100845.95;;;23.08;48.17
73073;BME280;61260;51.090;-1.786;2022-09-23T12:45:18;100841.83;;;22.96;49.00
73073;BME280;61260;51.090;-1.786;2022-09-23T12:47:48;100845.61;;;22.92;47.97
73073;BME280;61260;51.090;-1.786;2022-09-23T12:51:11;100846.06;;;22.89;45.39
73073;BME280;61260;51.090;-1.786;2022-09-23T12:53:57;100844.44;;;23.23;46.46
73073;BME280;61260;51.090;-1.786;2022-09-23T12:59:22;100843.63;;;23.75;45.06
73073;BME280;61260;51.090;-1.786;2022-09-23T13:01:52;100846.98;;;23.43;45.17
73073;BME280;61260;51.090;-1.786;2022-09-23T13:04:34;100845.46;;;23.14;45.99
73073;BME280;61260;51.090;-1.786;2022-09-23T13:07:31;100842.77;;;22.63;47.64
73073;BME280;61260;51.090;-1.786;2022-09-23T13:10:05;100848.52;;;22.22;49.02
73073;BME280;61260;51.090;-1.786;2022-09-23T13:12:37;100847.98;;;21.94;50.21
73073;BME280;61260;51.090;-1.786;2022-09-23T13:15:16;100845.91;;;21.71;51.37
73073;BME280;61260;51.090;-1.786;2022-09-23T13:17:50;100845.00;;;21.55;51.62
73073;BME280;61260;51.090;-1.786;2022-09-23T13:20:35;100843.64;;;21.57;52.19
73073;BME280;61260;51.090;-1.786;2022-09-23T13:23:21;100840.77;;;21.58;52.46
73073;BME280;61260;51.090;-1.786;2022-09-23T13:25:53;100842.44;;;21.57;50.83
73073;BME280;61260;51.090;-1.786;2022-09-23T13:28:35;100842.75;;;21.58;49.55
73073;BME280;61260;51.090;-1.786;2022-09-23T13:31:15;100837.34;;;21.50;49.26
73073;BME280;61260;51.090;-1.786;2022-09-23T13:33:47;100832.02;;;21.41;49.57
73073;BME280;61260;51.090;-1.786;2022-09-23T13:36:19;100828.32;;;21.39;49.94
73073;BME280;61260;51.090;-1.786;2022-09-23T13:38:49;100823.88;;;21.29;50.57
73073;BME280;61260;51.090;-1.786;2022-09-23T13:41:21;100829.73;;;21.15;50.83